createdAt,value
2018-12-07T00:00:08.680Z,88.77
2018-12-07T00:02:36.016Z,88.52
2018-12-07T00:05:03.263Z,88.17
2018-12-07T00:10:09.866Z,87.68
2018-12-07T00:12:37.015Z,88.09
2018-12-07T00:15:05.733Z,87.85
2018-12-07T00:17:32.903Z,87.57
2018-12-07T00:20:00.224Z,87.68
2018-12-07T00:22:27.377Z,88.00
2018-12-07T00:24:54.569Z,87.82
2018-12-07T00:27:21.708Z,87.86
2018-12-07T00:29:48.805Z,87.31
2018-12-07T00:32:15.960Z,87.49
2018-12-07T00:34:43.094Z,87.42
2018-12-07T00:37:11.770Z,87.54
2018-12-07T00:39:39.787Z,87.20
2018-12-07T00:42:06.936Z,86.61
2018-12-07T00:44:34.095Z,87.06
2018-12-07T00:47:01.214Z,86.30
2018-12-07T00:49:28.353Z,86.31
2018-12-07T00:51:55.548Z,86.35
2018-12-07T00:54:22.812Z,86.17
2018-12-07T00:56:49.932Z,85.49
2018-12-07T00:59:17.212Z,85.28
2018-12-07T01:01:44.415Z,85.35
2018-12-07T01:04:12.025Z,85.57
2018-12-07T01:06:39.182Z,85.61
2018-12-07T01:09:08.191Z,85.88
2018-12-07T01:11:36.328Z,86.10
2018-12-07T01:14:03.582Z,86.64
2018-12-07T01:16:30.726Z,87.47
2018-12-07T01:18:57.842Z,87.33
2018-12-07T01:21:24.949Z,87.61
2018-12-07T01:23:52.982Z,87.49
2018-12-07T01:26:20.077Z,87.47
2018-12-07T01:28:47.340Z,87.98
2018-12-07T01:31:14.627Z,87.48
2018-12-07T01:33:41.885Z,87.66
2018-12-07T01:36:09.145Z,87.57
2018-12-07T01:38:36.382Z,86.92
2018-12-07T01:41:03.552Z,86.88
2018-12-07T01:43:30.720Z,86.55
2018-12-07T01:45:57.836Z,86.62
2018-12-07T01:48:27.301Z,86.79
2018-12-07T01:50:54.493Z,86.38
2018-12-07T01:53:21.642Z,86.81
2018-12-07T01:55:48.750Z,86.98
2018-12-07T01:58:15.985Z,87.16
2018-12-07T02:00:43.374Z,87.36
2018-12-07T02:03:10.567Z,87.92
2018-12-07T02:05:37.769Z,87.62
2018-12-07T02:08:04.933Z,87.72
2018-12-07T02:10:32.142Z,88.36
2018-12-07T02:12:59.356Z,87.73
2018-12-07T02:15:26.539Z,88.76
2018-12-07T02:17:53.907Z,89.15
2018-12-07T02:20:21.050Z,89.05
2018-12-07T02:22:48.197Z,88.86
2018-12-07T02:25:15.316Z,89.04
2018-12-07T02:27:48.109Z,88.89
2018-12-07T02:30:16.694Z,88.94
2018-12-07T02:32:43.804Z,88.44
2018-12-07T02:35:11.327Z,88.13
2018-12-07T02:37:38.505Z,87.21
2018-12-07T02:40:05.748Z,87.43
2018-12-07T02:42:32.898Z,87.43
2018-12-07T02:45:00.147Z,87.52
2018-12-07T02:47:27.465Z,87.01
2018-12-07T02:49:54.705Z,86.33
2018-12-07T02:52:25.457Z,86.21
2018-12-07T02:54:52.588Z,86.52
2018-12-07T02:57:19.738Z,86.51
2018-12-07T02:59:52.351Z,85.80
2018-12-07T03:02:19.512Z,85.99
2018-12-07T03:04:51.108Z,85.95
2018-12-07T03:07:18.280Z,85.54
2018-12-07T03:09:45.589Z,85.48
2018-12-07T03:12:12.677Z,85.76
2018-12-07T03:14:42.693Z,85.38
2018-12-07T03:17:09.869Z,84.89
2018-12-07T03:19:37.771Z,85.11
2018-12-07T03:22:05.661Z,84.84
2018-12-07T03:24:33.781Z,85.21
2018-12-07T03:27:00.886Z,84.81
2018-12-07T03:29:28.204Z,84.83
2018-12-07T03:31:55.409Z,86.18
2018-12-07T03:34:23.130Z,86.60
2018-12-07T03:36:50.536Z,86.83
2018-12-07T03:39:17.778Z,87.44
2018-12-07T03:41:44.980Z,88.23
2018-12-07T03:44:12.165Z,87.87
2018-12-07T03:46:39.342Z,88.34
2018-12-07T03:49:06.541Z,88.29
2018-12-07T03:51:33.703Z,88.56
2018-12-07T03:54:00.834Z,89.48
2018-12-07T03:56:27.965Z,89.62
2018-12-07T03:58:56.848Z,89.55
2018-12-07T04:01:23.995Z,89.42
2018-12-07T04:03:51.340Z,90.38
2018-12-07T04:06:18.664Z,90.28
2018-12-07T04:08:45.951Z,90.40
2018-12-07T04:16:03.929Z,91.29
2018-12-07T04:18:31.067Z,90.45
2018-12-07T04:20:58.305Z,90.25
2018-12-07T04:23:25.553Z,89.73
2018-12-07T04:25:52.804Z,89.50
2018-12-07T04:28:19.983Z,89.87
2018-12-07T04:30:47.154Z,90.18
2018-12-07T04:33:14.858Z,90.34
2018-12-07T04:35:42.105Z,90.44
2018-12-07T04:38:09.222Z,91.22
2018-12-07T04:40:37.076Z,90.57
2018-12-07T04:43:04.236Z,89.97
2018-12-07T04:45:31.426Z,89.02
2018-12-07T04:47:58.697Z,89.18
2018-12-07T04:50:25.938Z,87.95
2018-12-07T04:52:53.080Z,87.48
2018-12-07T04:55:20.231Z,86.94
2018-12-07T04:57:47.533Z,87.09
2018-12-07T05:00:14.727Z,86.57
2018-12-07T05:02:41.942Z,86.75
2018-12-07T05:05:11.202Z,86.13
2018-12-07T05:07:38.540Z,85.38
2018-12-07T05:10:06.266Z,85.29
2018-12-07T05:12:33.605Z,84.89
2018-12-07T05:15:00.836Z,85.27
2018-12-07T05:17:28.088Z,85.14
2018-12-07T05:19:55.239Z,85.31
2018-12-07T05:22:22.493Z,85.08
2018-12-07T05:24:49.768Z,85.58
2018-12-07T05:27:16.899Z,85.48
2018-12-07T05:29:44.466Z,84.94
2018-12-07T05:32:12.422Z,84.77
2018-12-07T05:34:39.805Z,84.77
2018-12-07T05:37:06.961Z,84.55
2018-12-07T05:39:34.798Z,84.29
2018-12-07T05:42:02.710Z,84.56
2018-12-07T05:44:29.846Z,84.23
2018-12-07T05:46:57.341Z,84.68
2018-12-07T05:49:24.537Z,84.08
2018-12-07T05:51:51.706Z,84.96
2018-12-07T05:54:18.854Z,83.94
2018-12-07T05:56:46.052Z,84.44
2018-12-07T05:59:14.220Z,84.22
2018-12-07T06:01:42.045Z,84.39
2018-12-07T06:04:09.226Z,84.23
2018-12-07T06:06:36.597Z,84.49
2018-12-07T06:09:06.076Z,84.29
2018-12-07T06:11:33.305Z,83.37
2018-12-07T06:14:00.504Z,83.02
2018-12-07T06:16:28.193Z,83.10
2018-12-07T06:18:55.453Z,83.83
2018-12-07T06:21:22.681Z,83.12
2018-12-07T06:23:50.014Z,82.42
2018-12-07T06:26:17.798Z,83.15
2018-12-07T06:28:45.084Z,83.25
2018-12-07T06:31:12.302Z,82.83
2018-12-07T06:33:39.476Z,82.17
2018-12-07T06:36:06.633Z,82.43
2018-12-07T06:38:33.921Z,82.78
2018-12-07T06:41:01.116Z,82.54
2018-12-07T06:43:28.492Z,82.07
2018-12-07T06:45:55.734Z,82.01
2018-12-07T06:48:23.051Z,82.35
2018-12-07T06:50:53.346Z,81.73
2018-12-07T06:53:20.654Z,81.88
2018-12-07T06:55:51.997Z,81.94
2018-12-07T06:58:19.666Z,82.54
2018-12-07T07:00:47.132Z,82.38
2018-12-07T07:03:14.647Z,82.39
2018-12-07T07:05:42.345Z,82.34
2018-12-07T07:08:09.612Z,82.89
2018-12-07T07:10:36.846Z,83.04
2018-12-07T07:13:04.715Z,82.65
2018-12-07T07:15:31.961Z,83.09
2018-12-07T07:17:59.153Z,82.92
2018-12-07T07:20:26.501Z,82.48
2018-12-07T07:22:53.853Z,82.85
2018-12-07T07:25:20.989Z,82.92
2018-12-07T07:27:48.398Z,82.22
2018-12-07T07:30:15.628Z,81.88
2018-12-07T07:32:42.917Z,82.00
2018-12-07T07:35:10.253Z,82.44
2018-12-07T07:37:37.432Z,82.42
2018-12-07T07:40:04.635Z,82.46
2018-12-07T07:42:32.525Z,82.50
2018-12-07T07:44:59.961Z,82.58
2018-12-07T07:47:27.172Z,82.11
2018-12-07T07:49:54.339Z,82.10
2018-12-07T07:52:21.504Z,82.23
2018-12-07T07:54:49.868Z,81.81
2018-12-07T07:57:18.296Z,81.83
2018-12-07T07:59:46.615Z,81.84
2018-12-07T08:02:13.782Z,81.88
2018-12-07T08:04:41.668Z,81.92
2018-12-07T08:07:08.960Z,81.17
2018-12-07T08:09:36.252Z,81.67
2018-12-07T08:12:03.617Z,80.95
2018-12-07T08:14:31.041Z,81.26
2018-12-07T08:16:58.242Z,81.21
2018-12-07T08:19:25.611Z,81.29
2018-12-07T08:21:52.871Z,81.35
2018-12-07T08:24:20.189Z,81.27
2018-12-07T08:26:47.743Z,81.09
2018-12-07T08:29:15.411Z,81.75
2018-12-07T08:31:42.603Z,81.36
2018-12-07T08:34:09.764Z,81.17
2018-12-07T08:36:36.964Z,80.59
2018-12-07T08:39:08.621Z,81.08
2018-12-07T08:41:36.856Z,81.17
2018-12-07T08:44:04.313Z,80.71
2018-12-07T08:46:31.599Z,80.29
2018-12-07T08:48:58.953Z,79.53
2018-12-07T08:51:26.109Z,79.63
2018-12-07T08:53:53.281Z,79.24
2018-12-07T08:56:20.605Z,79.49
2018-12-07T08:58:47.772Z,80.06
2018-12-07T09:01:15.277Z,79.47
2018-12-07T09:03:42.604Z,78.87
2018-12-07T09:06:10.584Z,78.96
2018-12-07T09:08:37.871Z,78.45
2018-12-07T09:11:05.438Z,78.06
2018-12-07T09:13:33.244Z,78.79
2018-12-07T09:16:00.485Z,78.57
2018-12-07T09:18:27.613Z,77.93
2018-12-07T09:20:55.330Z,78.91
2018-12-07T09:23:23.307Z,78.89
2018-12-07T09:25:50.574Z,78.49
2018-12-07T09:28:17.747Z,78.78
2018-12-07T09:30:45.019Z,78.68
2018-12-07T09:33:12.618Z,78.35
2018-12-07T09:35:41.219Z,78.72
2018-12-07T09:38:13.083Z,78.60
2018-12-07T09:40:39.585Z,78.30
2018-12-07T09:43:06.858Z,78.51
2018-12-07T09:45:34.136Z,78.53
2018-12-07T09:48:01.377Z,78.00
2018-12-07T09:50:28.557Z,78.34
2018-12-07T09:52:56.606Z,78.22
2018-12-07T09:55:24.749Z,78.49
2018-12-07T09:57:52.235Z,78.00
2018-12-07T10:00:19.356Z,78.25
2018-12-07T10:02:46.682Z,78.11
2018-12-07T10:05:14.029Z,78.42
2018-12-07T10:07:41.313Z,78.33
2018-12-07T10:10:08.862Z,77.40
2018-12-07T10:12:36.272Z,77.62
2018-12-07T10:15:04.000Z,77.10
2018-12-07T10:17:31.239Z,77.18
2018-12-07T10:19:59.132Z,76.96
2018-12-07T10:22:26.276Z,77.53
2018-12-07T10:24:53.498Z,77.25
2018-12-07T10:27:20.825Z,77.87
2018-12-07T10:29:48.068Z,77.80
2018-12-07T10:32:15.819Z,77.17
2018-12-07T10:34:43.756Z,77.91
2018-12-07T10:37:10.991Z,77.77
2018-12-07T10:39:38.828Z,78.19
2018-12-07T10:42:06.128Z,77.92
2018-12-07T10:44:33.482Z,78.20
2018-12-07T10:47:01.357Z,77.55
2018-12-07T10:49:29.773Z,78.29
2018-12-07T10:51:57.986Z,78.84
2018-12-07T10:54:29.446Z,78.23
2018-12-07T10:56:56.948Z,77.94
2018-12-07T10:59:24.170Z,78.36
2018-12-07T11:01:57.252Z,78.18
2018-12-07T11:04:30.281Z,77.38
2018-12-07T11:07:03.334Z,77.54
2018-12-07T11:09:36.110Z,77.96
2018-12-07T11:12:08.898Z,78.27
2018-12-07T11:14:41.869Z,77.75
2018-12-07T11:17:14.636Z,77.29
2018-12-07T11:19:47.461Z,76.97
2018-12-07T11:22:21.020Z,77.18
2018-12-07T11:24:53.837Z,77.43
2018-12-07T11:27:27.923Z,76.95
2018-12-07T11:30:00.894Z,77.24
2018-12-07T11:32:37.721Z,77.11
2018-12-07T11:35:11.025Z,78.46
2018-12-07T11:37:38.252Z,79.65
2018-12-07T11:40:06.606Z,80.15
2018-12-07T11:42:33.916Z,81.08
2018-12-07T11:45:01.627Z,81.29
2018-12-07T11:47:28.972Z,80.80
2018-12-07T11:49:56.170Z,80.94
2018-12-07T11:52:23.622Z,81.30
2018-12-07T11:54:51.155Z,80.51
2018-12-07T11:57:18.969Z,80.58
2018-12-07T11:59:46.153Z,80.24
2018-12-07T12:02:13.970Z,80.50
2018-12-07T12:04:41.088Z,80.05
2018-12-07T12:07:08.314Z,79.85
2018-12-07T12:09:35.817Z,79.45
2018-12-07T12:12:03.909Z,79.50
2018-12-07T12:14:31.093Z,79.57
2018-12-07T12:16:58.722Z,79.60
2018-12-07T12:21:51.053Z,78.97
2018-12-07T12:24:18.316Z,79.58
2018-12-07T12:26:45.460Z,78.58
2018-12-07T12:29:13.365Z,78.86
2018-12-07T12:31:40.581Z,78.69
2018-12-07T12:34:07.677Z,78.37
2018-12-07T13:05:14.778Z,83.85
2018-12-07T13:07:48.452Z,84.43
2018-12-07T13:10:17.706Z,84.25
2018-12-07T13:12:44.852Z,84.76
2018-12-07T13:15:12.879Z,85.21
2018-12-07T13:17:40.070Z,86.04
2018-12-07T13:20:08.129Z,84.94
2018-12-07T13:22:35.407Z,85.84
2018-12-07T13:25:02.785Z,85.04
2018-12-07T13:27:30.643Z,85.13
2018-12-07T13:29:57.786Z,85.12
2018-12-07T13:32:25.022Z,83.95
2018-12-07T13:34:58.382Z,84.42
2018-12-07T13:37:26.201Z,84.70
2018-12-07T13:39:53.462Z,84.30
2018-12-07T13:42:20.851Z,83.80
2018-12-07T13:44:48.744Z,83.59
2018-12-07T13:47:16.163Z,84.38
2018-12-07T13:49:43.465Z,84.63
2018-12-07T13:52:11.101Z,85.13
2018-12-07T13:54:38.673Z,85.26
2018-12-07T13:57:06.006Z,84.30
2018-12-07T13:59:33.201Z,83.52
2018-12-07T14:02:00.585Z,83.02
2018-12-07T14:04:28.953Z,81.46
2018-12-07T14:06:56.824Z,82.23
2018-12-07T14:09:24.306Z,82.29
2018-12-07T14:11:51.621Z,82.00
2018-12-07T14:14:18.943Z,81.19
2018-12-07T14:16:46.479Z,81.49
2018-12-07T14:19:13.792Z,81.31
2018-12-07T14:21:41.070Z,80.89
2018-12-07T14:24:08.298Z,80.15
2018-12-07T14:26:35.715Z,81.18
2018-12-07T14:29:03.481Z,80.34
2018-12-07T14:31:30.897Z,80.86
2018-12-07T14:33:58.623Z,80.46
2018-12-07T14:36:26.455Z,81.11
2018-12-07T14:38:53.696Z,80.00
2018-12-07T14:41:21.235Z,79.42
2018-12-07T14:43:48.597Z,79.25
2018-12-07T14:46:16.026Z,78.90
2018-12-07T14:48:43.406Z,78.96
2018-12-07T14:51:10.745Z,78.79
2018-12-07T14:53:38.460Z,78.67
2018-12-07T14:56:06.210Z,78.89
2018-12-07T14:58:33.787Z,78.94
2018-12-07T15:01:01.333Z,79.56
2018-12-07T15:03:28.575Z,79.33
2018-12-07T15:05:55.971Z,79.21
2018-12-07T15:08:23.547Z,78.70
2018-12-07T15:10:50.846Z,77.66
2018-12-07T15:13:18.456Z,78.96
2018-12-07T15:15:46.193Z,77.82
2018-12-07T15:18:13.786Z,77.53
2018-12-07T15:20:43.931Z,76.43
2018-12-07T15:23:11.867Z,76.69
2018-12-07T15:25:39.595Z,75.84
2018-12-07T15:28:07.106Z,75.29
2018-12-07T15:30:34.661Z,74.59
2018-12-07T15:33:02.041Z,74.70
2018-12-07T15:35:29.384Z,74.26
2018-12-07T15:37:56.727Z,73.58
2018-12-07T15:40:24.163Z,73.28
2018-12-07T15:42:51.729Z,72.93
2018-12-07T15:45:19.968Z,72.63
2018-12-07T15:47:47.336Z,72.46
2018-12-07T15:50:14.958Z,72.31
2018-12-07T15:52:42.628Z,72.23
2018-12-07T15:55:10.921Z,72.82
2018-12-07T15:57:38.323Z,72.15
2018-12-07T16:00:07.080Z,73.11
2018-12-07T16:02:34.530Z,72.44
2018-12-07T16:05:01.941Z,73.31
2018-12-07T16:07:29.392Z,73.08
2018-12-07T16:09:58.108Z,73.62
2018-12-07T16:12:25.665Z,73.80
2018-12-07T16:14:53.293Z,74.06
2018-12-07T16:17:20.584Z,74.36
2018-12-07T16:19:47.994Z,74.84
2018-12-07T16:22:15.589Z,75.00
2018-12-07T16:24:43.287Z,75.37
2018-12-07T16:27:11.242Z,75.67
2018-12-07T16:29:39.293Z,76.22
2018-12-07T16:32:06.563Z,75.83
2018-12-07T16:34:33.998Z,76.41
2018-12-07T16:37:01.256Z,76.61
2018-12-07T16:39:28.836Z,76.92
2018-12-07T16:41:56.657Z,77.66
2018-12-07T16:44:24.732Z,78.06
2018-12-07T16:46:51.894Z,78.43
2018-12-07T16:49:19.662Z,79.10
2018-12-07T16:51:47.049Z,78.65
2018-12-07T16:54:14.362Z,79.43
2018-12-07T16:56:42.270Z,80.39
2018-12-07T16:59:09.568Z,81.61
2018-12-07T17:01:37.250Z,82.32
2018-12-07T17:04:05.597Z,82.46
2018-12-07T17:06:32.801Z,83.45
2018-12-07T17:09:00.006Z,84.12
2018-12-07T17:11:28.265Z,84.53
2018-12-07T17:13:56.084Z,84.23
2018-12-07T17:16:24.599Z,83.65
2018-12-07T17:18:52.272Z,84.37
2018-12-07T17:21:26.116Z,85.24
2018-12-07T17:24:04.392Z,86.04
2018-12-07T17:26:31.678Z,86.03
2018-12-07T17:29:06.063Z,86.04
2018-12-07T17:31:40.133Z,86.06
2018-12-07T17:37:10.704Z,85.46
2018-12-07T17:39:42.250Z,86.08
2018-12-07T17:42:16.333Z,85.46
2018-12-07T17:44:43.700Z,85.63
2018-12-07T17:47:12.303Z,84.92
2018-12-07T17:49:49.831Z,85.48
2018-12-07T17:52:36.218Z,85.69
2018-12-07T17:55:03.673Z,86.26
2018-12-07T17:57:31.283Z,86.63
2018-12-07T17:59:58.911Z,86.19
2018-12-07T18:02:26.431Z,85.96
2018-12-07T18:04:53.733Z,86.48
2018-12-07T18:07:21.251Z,86.31
2018-12-07T18:09:48.724Z,86.54
2018-12-07T18:12:16.269Z,86.25
2018-12-07T18:17:40.604Z,85.78
2018-12-07T18:20:18.554Z,85.78
2018-12-07T18:22:46.294Z,85.25
2018-12-07T18:25:13.828Z,85.31
2018-12-07T18:27:41.152Z,85.56
2018-12-07T18:30:08.465Z,85.74
2018-12-07T18:32:40.567Z,86.18
2018-12-07T18:35:09.931Z,86.73
2018-12-07T18:40:40.097Z,87.26
2018-12-07T18:46:11.306Z,86.97
2018-12-07T18:48:38.554Z,86.14
2018-12-07T18:51:05.768Z,84.98
2018-12-07T18:53:33.029Z,83.36
2018-12-07T18:56:00.218Z,83.31
2018-12-07T18:58:27.343Z,82.79
2018-12-07T19:00:54.713Z,81.72
2018-12-07T19:03:22.088Z,82.86
2018-12-07T19:05:56.278Z,82.51
2018-12-07T19:08:23.593Z,83.01
2018-12-07T19:10:50.830Z,82.00
2018-12-07T19:13:21.400Z,81.64
2018-12-07T19:15:49.490Z,81.29
2018-12-07T19:18:17.133Z,80.60
2018-12-07T19:20:44.428Z,78.63
2018-12-07T19:23:11.541Z,77.56
2018-12-07T19:25:38.688Z,75.75
2018-12-07T19:28:06.726Z,75.68
2018-12-07T19:30:34.048Z,75.77
2018-12-07T19:33:01.254Z,75.88
2018-12-07T19:35:28.794Z,75.46
2018-12-07T19:37:56.251Z,75.09
2018-12-07T19:40:23.630Z,75.16
2018-12-07T19:42:50.962Z,74.18
2018-12-07T19:45:18.404Z,75.00
2018-12-07T19:47:45.844Z,74.39
2018-12-07T19:50:13.328Z,75.02
2018-12-07T19:52:40.819Z,75.06
2018-12-07T19:55:08.286Z,74.71
2018-12-07T19:57:36.135Z,75.31
2018-12-07T20:00:05.295Z,75.79
2018-12-07T20:02:32.500Z,76.33
2018-12-07T20:04:59.598Z,75.80
2018-12-07T20:07:26.812Z,75.97
2018-12-07T20:09:54.011Z,75.38
2018-12-07T20:12:21.208Z,74.50
2018-12-07T20:14:48.384Z,74.70
2018-12-07T20:17:15.604Z,74.48
2018-12-07T20:19:45.224Z,74.58
2018-12-07T20:22:13.135Z,74.92
2018-12-07T20:24:40.794Z,75.27
2018-12-07T20:27:08.575Z,75.62
2018-12-07T20:29:35.942Z,74.13
2018-12-07T20:32:03.459Z,74.53
2018-12-07T20:34:30.841Z,74.48
2018-12-07T20:36:58.083Z,73.93
2018-12-07T20:39:25.391Z,74.39
2018-12-07T20:41:53.068Z,74.34
2018-12-07T20:44:20.480Z,74.33
2018-12-07T20:46:47.768Z,74.15
2018-12-07T20:49:15.091Z,73.94
2018-12-07T20:51:42.508Z,73.73
2018-12-07T20:54:10.020Z,73.38
2018-12-07T20:56:37.532Z,73.93
2018-12-07T20:59:04.707Z,74.05
2018-12-07T21:01:35.061Z,73.54
2018-12-07T21:04:42.122Z,72.89
2018-12-07T21:07:31.797Z,72.51
2018-12-07T21:11:11.973Z,72.32
2018-12-07T21:13:51.707Z,72.49
2018-12-07T21:17:29.649Z,72.41
2018-12-07T21:20:28.996Z,72.21
2018-12-07T21:22:56.826Z,72.39
2018-12-07T21:25:24.399Z,71.86
2018-12-07T21:27:52.145Z,71.95
2018-12-07T21:31:02.860Z,72.02
2018-12-07T21:34:39.455Z,72.12
2018-12-07T21:37:06.991Z,72.30
2018-12-07T21:39:40.428Z,71.96
2018-12-07T21:42:07.710Z,71.34
2018-12-07T21:44:35.166Z,71.07
2018-12-07T21:47:03.390Z,71.26
2018-12-07T21:49:35.889Z,70.96
2018-12-07T21:52:18.242Z,71.24
2018-12-07T21:54:45.511Z,71.03
2018-12-07T21:57:13.608Z,70.96
2018-12-07T21:59:40.836Z,71.59
2018-12-07T22:02:08.398Z,71.75
2018-12-07T22:04:36.038Z,72.21
2018-12-07T22:07:03.954Z,73.86
2018-12-07T22:09:31.388Z,74.18
2018-12-07T22:11:58.608Z,75.05
2018-12-07T22:14:26.410Z,76.40
2018-12-07T22:16:53.949Z,78.22
2018-12-07T22:19:21.166Z,78.90
2018-12-07T22:21:48.754Z,81.82
2018-12-07T22:24:16.115Z,85.44
2018-12-07T22:26:44.009Z,84.34
2018-12-07T22:29:11.414Z,85.42
2018-12-07T22:31:38.639Z,84.09
2018-12-07T22:34:05.835Z,85.89
2018-12-07T22:36:33.038Z,86.66
2018-12-07T22:39:00.512Z,87.59
2018-12-07T22:41:27.982Z,88.00
2018-12-07T22:43:55.354Z,89.14
2018-12-07T22:46:23.391Z,89.85
2018-12-07T22:48:51.346Z,90.36
2018-12-07T22:51:23.270Z,90.11
2018-12-07T22:53:50.617Z,90.89
2018-12-07T22:56:17.812Z,91.20
2018-12-07T22:58:47.049Z,90.86
2018-12-07T23:01:14.527Z,90.64
2018-12-07T23:03:42.450Z,90.16
2018-12-07T23:06:09.675Z,89.67
2018-12-07T23:08:36.825Z,89.10
2018-12-07T23:11:03.953Z,88.41
2018-12-07T23:13:31.172Z,87.55
2018-12-07T23:15:58.320Z,85.94
2018-12-07T23:18:25.403Z,87.22
2018-12-07T23:20:52.629Z,87.63
2018-12-07T23:23:19.908Z,88.84
2018-12-07T23:25:47.181Z,88.82
2018-12-07T23:28:19.477Z,88.40
2018-12-07T23:30:43.484Z,89.77
2018-12-07T23:33:10.599Z,90.54
2018-12-07T23:35:38.555Z,90.37
2018-12-07T23:38:05.823Z,89.58
2018-12-07T23:40:32.889Z,90.21
2018-12-07T23:43:00.932Z,90.91
2018-12-07T23:45:28.229Z,90.92
2018-12-07T23:47:55.372Z,90.68
2018-12-07T23:50:22.581Z,90.79
2018-12-07T23:52:49.780Z,90.07
2018-12-07T23:55:16.863Z,89.96
2018-12-07T23:57:43.960Z,89.56
